createdAt,value
2018-03-24T00:00:03.339Z,99.90
2018-03-24T00:02:32.065Z,99.90
2018-03-24T00:05:00.626Z,99.90
2018-03-24T00:07:29.046Z,99.90
2018-03-24T00:09:57.714Z,99.90
2018-03-24T00:12:26.200Z,99.90
2018-03-24T00:14:54.602Z,99.90
2018-03-24T00:17:23.007Z,99.90
2018-03-24T00:19:51.709Z,99.90
2018-03-24T00:22:21.085Z,99.90
2018-03-24T00:24:49.760Z,99.90
2018-03-24T00:27:18.180Z,99.90
2018-03-24T00:29:46.866Z,99.90
2018-03-24T00:32:16.158Z,99.90
2018-03-24T00:34:44.536Z,99.90
2018-03-24T00:37:13.216Z,99.90
2018-03-24T00:39:41.648Z,99.90
2018-03-24T00:42:10.754Z,99.90
2018-03-24T00:44:39.212Z,99.90
2018-03-24T00:47:08.669Z,99.90
2018-03-24T00:49:37.578Z,99.90
2018-03-24T00:52:06.941Z,99.90
2018-03-24T00:54:35.518Z,99.90
2018-03-24T00:57:04.047Z,99.90
2018-03-24T00:59:33.205Z,99.90
2018-03-24T01:02:01.697Z,99.90
2018-03-24T01:04:30.726Z,99.90
2018-03-24T01:06:59.766Z,99.90
2018-03-24T01:09:28.479Z,99.90
2018-03-24T01:11:58.395Z,99.90
2018-03-24T01:14:26.792Z,99.90
2018-03-24T01:16:55.502Z,99.90
2018-03-24T01:19:24.945Z,99.90
2018-03-24T01:21:53.607Z,99.90
2018-03-24T01:24:22.888Z,99.90
2018-03-24T01:26:51.385Z,99.90
2018-03-24T01:29:19.927Z,99.90
2018-03-24T01:31:48.577Z,99.90
2018-03-24T01:34:17.136Z,99.90
2018-03-24T01:36:45.542Z,99.90
2018-03-24T01:39:14.115Z,99.90
2018-03-24T01:41:42.610Z,99.90
2018-03-24T01:44:11.282Z,99.90
2018-03-24T01:46:39.946Z,99.90
2018-03-24T01:49:08.424Z,99.90
2018-03-24T01:51:36.824Z,99.90
2018-03-24T01:54:05.711Z,99.90
2018-03-24T01:56:34.107Z,99.90
2018-03-24T01:59:02.766Z,99.90
2018-03-24T02:01:30.822Z,99.90
2018-03-24T02:03:59.332Z,99.90
2018-03-24T02:06:27.725Z,99.90
2018-03-24T02:08:56.382Z,99.90
2018-03-24T02:11:24.782Z,99.90
2018-03-24T02:13:53.822Z,99.90
2018-03-24T02:16:22.265Z,99.90
2018-03-24T02:18:50.748Z,99.90
2018-03-24T02:21:22.051Z,99.90
2018-03-24T02:23:50.548Z,99.90
2018-03-24T02:26:18.759Z,99.90
2018-03-24T02:28:47.907Z,99.90
2018-03-24T02:31:17.089Z,99.90
2018-03-24T02:33:45.689Z,99.90
2018-03-24T02:36:14.446Z,99.90
2018-03-24T02:38:43.130Z,99.90
2018-03-24T02:41:11.301Z,99.90
2018-03-24T02:43:40.750Z,99.90
2018-03-24T02:46:08.815Z,99.90
2018-03-24T02:48:38.100Z,99.90
2018-03-24T02:51:07.555Z,99.90
2018-03-24T02:53:36.708Z,99.90
2018-03-24T02:56:05.099Z,99.90
2018-03-24T02:58:34.350Z,99.90
2018-03-24T03:01:02.752Z,99.90
2018-03-24T03:03:31.143Z,99.90
2018-03-24T03:05:59.634Z,99.90
2018-03-24T03:08:28.450Z,99.90
2018-03-24T03:10:57.604Z,99.90
2018-03-24T03:13:27.037Z,99.90
2018-03-24T03:15:56.191Z,99.90
2018-03-24T03:18:24.851Z,99.90
2018-03-24T03:20:53.327Z,99.90
2018-03-24T03:23:21.830Z,99.90
2018-03-24T03:25:50.527Z,99.90
2018-03-24T03:28:18.848Z,99.90
2018-03-24T03:33:49.407Z,99.90
2018-03-24T03:36:17.795Z,99.90
2018-03-24T03:38:46.478Z,99.90
2018-03-24T03:41:15.187Z,99.90
2018-03-24T03:43:43.947Z,99.90
2018-03-24T03:46:12.658Z,99.90
2018-03-24T03:48:41.371Z,99.90
2018-03-24T03:51:09.751Z,99.90
2018-03-24T03:53:38.782Z,99.90
2018-03-24T03:56:08.729Z,99.90
2018-03-24T03:58:37.294Z,99.90
2018-03-24T04:01:05.694Z,99.90
2018-03-24T04:03:34.354Z,99.90
2018-03-24T04:06:03.793Z,99.90
2018-03-24T04:08:32.186Z,99.90
2018-03-24T04:11:00.800Z,99.90
2018-03-24T04:13:29.946Z,99.90
2018-03-24T04:15:58.601Z,99.90
2018-03-24T04:18:27.302Z,99.90
2018-03-24T04:20:55.787Z,99.90
2018-03-24T04:23:24.454Z,99.90
2018-03-24T04:25:52.842Z,99.90
2018-03-24T04:28:21.543Z,99.90
2018-03-24T04:30:49.934Z,99.90
2018-03-24T04:33:18.598Z,99.90
2018-03-24T04:35:46.988Z,99.90
2018-03-24T04:38:15.375Z,99.90
2018-03-24T04:40:43.787Z,99.90
2018-03-24T04:43:12.952Z,99.90
2018-03-24T04:45:41.619Z,99.90
2018-03-24T04:48:10.024Z,99.90
2018-03-24T04:50:39.386Z,99.90
2018-03-24T04:53:08.853Z,99.90
2018-03-24T04:55:37.745Z,99.90
2018-03-24T04:58:06.423Z,99.90
2018-03-24T05:00:35.083Z,99.90
2018-03-24T05:03:03.482Z,99.90
2018-03-24T05:05:32.946Z,99.90
2018-03-24T05:08:01.807Z,99.90
2018-03-24T05:10:31.247Z,99.90
2018-03-24T05:12:59.839Z,99.90
2018-03-24T05:15:28.555Z,99.90
2018-03-24T05:17:58.025Z,99.90
2018-03-24T05:20:26.987Z,99.90
2018-03-24T05:22:56.741Z,99.90
2018-03-24T05:25:27.251Z,99.90
2018-03-24T05:27:56.127Z,99.90
2018-03-24T05:30:25.143Z,99.90
2018-03-24T05:32:53.539Z,99.90
2018-03-24T05:35:22.695Z,99.90
2018-03-24T05:37:51.347Z,99.90
2018-03-24T05:40:19.755Z,99.90
2018-03-24T05:42:48.143Z,99.90
2018-03-24T05:45:17.347Z,99.90
2018-03-24T05:47:45.760Z,99.90
2018-03-24T05:50:15.228Z,99.90
2018-03-24T05:52:43.773Z,99.90
2018-03-24T05:55:13.823Z,99.90
2018-03-24T05:57:42.499Z,99.90
2018-03-24T06:00:10.715Z,99.90
2018-03-24T06:02:40.087Z,99.90
2018-03-24T06:05:08.482Z,99.90
2018-03-24T06:07:37.330Z,99.90
2018-03-24T06:10:06.446Z,99.90
2018-03-24T06:12:35.335Z,99.90
2018-03-24T06:15:03.935Z,99.90
2018-03-24T06:17:32.595Z,99.90
2018-03-24T06:20:01.263Z,99.90
2018-03-24T06:22:29.688Z,99.90
2018-03-24T06:24:58.881Z,99.90
2018-03-24T06:27:27.406Z,99.90
2018-03-24T06:29:55.758Z,99.90
2018-03-24T06:32:24.020Z,99.90
2018-03-24T06:34:52.976Z,99.90
2018-03-24T06:37:21.649Z,99.90
2018-03-24T06:39:50.356Z,99.90
2018-03-24T06:42:19.791Z,99.90
2018-03-24T06:44:48.576Z,99.90
2018-03-24T06:47:18.236Z,99.90
2018-03-24T06:49:46.649Z,99.90
2018-03-24T06:52:15.302Z,99.90
2018-03-24T06:54:43.692Z,99.90
2018-03-24T06:57:12.129Z,99.90
2018-03-24T06:59:41.549Z,99.90
2018-03-24T07:02:11.079Z,99.90
2018-03-24T07:04:39.738Z,99.90
2018-03-24T07:07:08.411Z,99.90
2018-03-24T07:09:37.887Z,99.90
2018-03-24T07:12:06.563Z,99.90
2018-03-24T07:14:35.231Z,99.90
2018-03-24T07:17:03.897Z,99.90
2018-03-24T07:19:32.604Z,99.90
2018-03-24T07:22:01.343Z,99.90
2018-03-24T07:24:30.639Z,99.90
2018-03-24T07:26:59.271Z,99.90
2018-03-24T07:29:27.952Z,99.90
2018-03-24T07:31:56.448Z,99.90
2018-03-24T07:34:25.939Z,99.90
2018-03-24T07:36:55.843Z,99.90
2018-03-24T07:39:24.291Z,99.90
2018-03-24T07:41:53.743Z,99.90
2018-03-24T07:44:23.215Z,99.90
2018-03-24T07:46:51.871Z,99.90
2018-03-24T07:49:21.475Z,99.90
2018-03-24T07:51:49.989Z,99.90
2018-03-24T07:54:18.395Z,99.90
2018-03-24T07:56:47.061Z,99.90
2018-03-24T07:59:15.483Z,99.90
2018-03-24T08:01:44.137Z,99.90
2018-03-24T08:04:12.685Z,99.90
2018-03-24T08:06:42.197Z,99.90
2018-03-24T08:09:11.442Z,99.90
2018-03-24T08:11:40.606Z,99.90
2018-03-24T08:14:09.014Z,99.90
2018-03-24T08:16:37.678Z,99.90
2018-03-24T08:19:06.150Z,99.90
2018-03-24T08:21:34.538Z,99.90
2018-03-24T08:24:03.309Z,99.90
2018-03-24T08:26:31.706Z,99.90
2018-03-24T08:29:00.979Z,99.90
2018-03-24T08:31:29.659Z,99.90
2018-03-24T08:33:58.086Z,99.90
2018-03-24T08:36:26.754Z,99.90
2018-03-24T08:38:55.435Z,99.90
2018-03-24T08:41:23.487Z,99.90
2018-03-24T08:43:51.884Z,99.90
2018-03-24T08:46:20.614Z,99.90
2018-03-24T08:48:49.008Z,99.90
2018-03-24T08:51:17.419Z,99.90
2018-03-24T08:53:45.991Z,99.90
2018-03-24T08:56:14.507Z,99.90
2018-03-24T08:58:42.975Z,99.90
2018-03-24T09:01:11.689Z,99.90
2018-03-24T09:03:40.089Z,99.90
2018-03-24T09:06:08.799Z,99.90
2018-03-24T09:08:37.195Z,99.90
2018-03-24T09:11:05.583Z,99.90
2018-03-24T09:13:34.135Z,99.90
2018-03-24T09:16:02.762Z,99.90
2018-03-24T09:18:31.935Z,99.90
2018-03-24T09:21:00.447Z,99.90
2018-03-24T09:23:29.614Z,99.90
2018-03-24T09:25:59.081Z,99.90
2018-03-24T09:28:27.533Z,99.90
2018-03-24T09:30:56.020Z,99.90
2018-03-24T09:33:24.474Z,99.90
2018-03-24T09:35:53.150Z,99.90
2018-03-24T09:38:21.778Z,98.80
2018-03-24T09:40:50.304Z,95.80
2018-03-24T09:43:18.764Z,93.90
2018-03-24T09:45:47.200Z,86.60
2018-03-24T09:48:16.368Z,73.40
2018-03-24T09:50:44.838Z,74.50
2018-03-24T09:53:14.254Z,78.50
2018-03-24T09:55:43.444Z,76.60
2018-03-24T09:58:14.831Z,77.60
2018-03-24T10:00:43.272Z,79.00
2018-03-24T10:03:11.768Z,75.70
2018-03-24T10:05:40.366Z,80.90
2018-03-24T10:08:09.518Z,80.50
2018-03-24T10:10:37.920Z,80.40
2018-03-24T10:13:06.474Z,73.00
2018-03-24T10:15:35.156Z,68.90
2018-03-24T10:18:03.715Z,64.10
2018-03-24T10:23:49.430Z,62.80
2018-03-24T10:26:17.150Z,67.60
2018-03-24T10:28:45.478Z,71.10
2018-03-24T10:31:13.902Z,69.50
2018-03-24T10:33:48.457Z,60.30
2018-03-24T10:36:16.664Z,60.20
2018-03-24T10:38:45.323Z,61.70
2018-03-24T10:41:13.707Z,66.40
2018-03-24T10:43:42.151Z,67.10
2018-03-24T10:46:10.754Z,68.30
2018-03-24T10:48:39.218Z,62.90
2018-03-24T10:51:07.830Z,61.40
2018-03-24T10:53:36.210Z,63.40
2018-03-24T10:56:04.399Z,57.80
2018-03-24T10:58:32.786Z,54.20
2018-03-24T11:04:04.374Z,61.10
2018-03-24T11:06:33.499Z,62.80
2018-03-24T11:09:02.063Z,59.80
2018-03-24T11:11:30.547Z,56.50
2018-03-24T11:13:59.810Z,53.40
2018-03-24T11:16:28.267Z,53.80
2018-03-24T11:18:56.960Z,54.60
2018-03-24T11:21:25.370Z,54.30
2018-03-24T11:23:54.108Z,54.50
2018-03-24T11:26:23.196Z,56.80
2018-03-24T11:28:51.851Z,56.10
2018-03-24T11:31:20.339Z,56.10
2018-03-24T11:33:49.283Z,52.80
2018-03-24T11:36:18.479Z,51.60
2018-03-24T11:38:46.866Z,51.70
2018-03-24T11:41:15.262Z,55.60
2018-03-24T11:43:43.756Z,55.70
2018-03-24T11:46:13.002Z,59.60
2018-03-24T11:48:41.398Z,59.40
2018-03-24T11:51:09.844Z,63.80
2018-03-24T11:53:48.173Z,59.20
2018-03-24T11:56:16.875Z,59.50
2018-03-24T11:58:46.476Z,56.40
2018-03-24T12:01:15.065Z,56.60
2018-03-24T12:03:43.733Z,56.50
2018-03-24T12:06:12.119Z,56.80
2018-03-24T12:08:40.822Z,54.50
2018-03-24T12:11:09.471Z,56.00
2018-03-24T12:13:37.931Z,54.10
2018-03-24T12:16:06.460Z,54.70
2018-03-24T12:18:35.164Z,50.30
2018-03-24T12:21:03.210Z,51.50
2018-03-24T12:23:31.606Z,51.30
2018-03-24T12:25:59.998Z,53.00
2018-03-24T12:28:28.678Z,56.00
2018-03-24T12:30:57.346Z,57.70
2018-03-24T12:33:26.029Z,55.10
2018-03-24T12:35:55.321Z,56.70
2018-03-24T12:38:23.722Z,56.70
2018-03-24T12:40:52.436Z,55.00
2018-03-24T12:43:20.781Z,57.20
2018-03-24T12:45:49.950Z,53.90
2018-03-24T12:48:18.371Z,53.90
2018-03-24T12:50:47.790Z,55.20
2018-03-24T12:53:16.308Z,54.00
2018-03-24T12:55:44.700Z,53.50
2018-03-24T12:58:13.245Z,55.50
2018-03-24T13:00:41.972Z,61.60
2018-03-24T13:03:10.410Z,56.80
2018-03-24T13:05:38.815Z,52.80
2018-03-24T13:08:07.319Z,53.20
2018-03-24T13:10:35.711Z,49.80
2018-03-24T13:13:04.111Z,48.30
2018-03-24T13:15:32.862Z,46.00
2018-03-24T13:18:02.259Z,49.50
2018-03-24T13:20:31.646Z,50.00
2018-03-24T13:23:00.085Z,50.00
2018-03-24T13:25:28.686Z,50.20
2018-03-24T13:27:57.059Z,50.20
2018-03-24T13:30:25.483Z,53.30
2018-03-24T13:32:54.063Z,51.90
2018-03-24T13:35:23.213Z,50.00
2018-03-24T13:37:52.642Z,50.40
2018-03-24T13:40:21.391Z,50.30
2018-03-24T13:42:49.774Z,50.20
2018-03-24T13:45:18.182Z,50.90
2018-03-24T13:47:46.740Z,51.20
2018-03-24T13:50:15.130Z,52.10
2018-03-24T13:52:43.510Z,51.00
2018-03-24T13:55:11.988Z,50.20
2018-03-24T13:57:40.489Z,50.00
2018-03-24T14:00:08.805Z,49.40
2018-03-24T14:02:37.449Z,50.80
2018-03-24T14:05:05.177Z,51.80
2018-03-24T14:07:33.747Z,52.30
2018-03-24T14:10:02.147Z,52.30
2018-03-24T14:12:30.594Z,50.80
2018-03-24T14:14:59.747Z,53.00
2018-03-24T14:17:28.210Z,53.40
2018-03-24T14:19:56.605Z,53.80
2018-03-24T14:22:25.002Z,52.30
2018-03-24T14:24:53.411Z,52.50
2018-03-24T14:27:21.908Z,52.80
2018-03-24T14:29:50.726Z,51.00
2018-03-24T14:32:19.722Z,51.20
2018-03-24T14:34:48.107Z,50.70
2018-03-24T14:37:16.578Z,50.20
2018-03-24T14:39:45.262Z,51.60
2018-03-24T14:42:14.116Z,52.00
2018-03-24T14:44:43.092Z,51.70
2018-03-24T14:47:11.773Z,50.10
2018-03-24T14:49:40.926Z,53.40
2018-03-24T14:52:09.678Z,53.10
2018-03-24T14:54:38.147Z,54.20
2018-03-24T14:57:06.877Z,55.10
2018-03-24T15:02:38.675Z,54.10
2018-03-24T15:05:07.315Z,55.20
2018-03-24T15:07:36.735Z,54.80
2018-03-24T15:10:04.543Z,54.80
2018-03-24T15:12:33.264Z,54.50
2018-03-24T15:15:02.563Z,56.80
2018-03-24T15:17:31.226Z,56.80
2018-03-24T15:19:59.620Z,57.10
2018-03-24T15:22:28.589Z,57.90
2018-03-24T15:24:57.806Z,57.30
2018-03-24T15:27:26.656Z,58.50
2018-03-24T15:30:06.442Z,59.80
2018-03-24T15:35:32.508Z,58.90
2018-03-24T15:38:00.583Z,59.00
2018-03-24T15:40:29.038Z,59.40
2018-03-24T15:42:57.171Z,63.70
2018-03-24T15:45:25.662Z,67.10
2018-03-24T15:47:54.054Z,73.00
2018-03-24T15:50:22.722Z,79.30
2018-03-24T15:52:51.276Z,83.20
2018-03-24T15:55:19.836Z,87.80
2018-03-24T15:57:48.500Z,92.20
2018-03-24T16:00:16.898Z,92.50
2018-03-24T16:02:45.572Z,91.90
2018-03-24T16:05:14.393Z,93.60
2018-03-24T16:07:42.845Z,96.20
2018-03-24T16:10:11.592Z,99.90
2018-03-24T16:12:41.075Z,99.90
2018-03-24T16:15:10.373Z,99.90
2018-03-24T16:17:39.035Z,99.90
2018-03-24T16:20:07.551Z,99.90
2018-03-24T16:22:36.256Z,99.90
2018-03-24T16:25:04.826Z,99.90
2018-03-24T16:27:34.375Z,99.90
2018-03-24T16:30:02.807Z,99.90
2018-03-24T16:32:31.247Z,99.90
2018-03-24T16:34:59.943Z,99.90
2018-03-24T16:37:28.617Z,99.90
2018-03-24T16:39:57.058Z,99.90
2018-03-24T16:42:25.443Z,99.90
2018-03-24T16:44:53.914Z,99.90
2018-03-24T16:47:23.327Z,99.90
2018-03-24T16:49:51.718Z,99.90
2018-03-24T16:52:20.103Z,99.90
2018-03-24T16:54:48.498Z,99.90
2018-03-24T16:57:18.022Z,99.90
2018-03-24T16:59:46.467Z,99.90
2018-03-24T17:02:15.029Z,99.90
2018-03-24T17:04:43.580Z,99.90
2018-03-24T17:07:12.492Z,99.90
2018-03-24T17:09:40.922Z,99.90
2018-03-24T17:12:10.868Z,99.90
2018-03-24T17:14:39.372Z,99.90
2018-03-24T17:17:07.781Z,99.90
2018-03-24T17:19:36.356Z,99.90
2018-03-24T17:22:04.756Z,99.90
2018-03-24T17:24:33.537Z,99.90
2018-03-24T17:27:02.176Z,99.90
2018-03-24T17:29:30.608Z,99.90
2018-03-24T17:31:59.111Z,99.90
2018-03-24T17:34:28.601Z,99.90
2018-03-24T17:36:56.995Z,99.90
2018-03-24T17:39:25.707Z,99.90
2018-03-24T17:41:54.175Z,99.90
2018-03-24T17:44:22.972Z,99.90
2018-03-24T17:46:51.888Z,99.90
2018-03-24T17:49:20.521Z,99.90
2018-03-24T17:51:49.011Z,99.90
2018-03-24T17:54:17.435Z,99.90
2018-03-24T17:56:45.998Z,99.90
2018-03-24T17:59:14.407Z,99.90
2018-03-24T18:01:43.071Z,99.90
2018-03-24T18:04:11.861Z,99.90
2018-03-24T18:06:40.607Z,99.90
2018-03-24T18:09:09.897Z,99.90
2018-03-24T18:11:38.401Z,99.90
2018-03-24T18:14:07.188Z,99.90
2018-03-24T18:16:36.648Z,99.90
2018-03-24T18:19:05.203Z,99.90
2018-03-24T18:21:33.355Z,99.90
2018-03-24T18:24:02.246Z,99.90
2018-03-24T18:26:30.880Z,99.90
2018-03-24T18:28:59.273Z,99.90
2018-03-24T18:31:27.685Z,99.90
2018-03-24T18:33:56.679Z,99.90
2018-03-24T18:36:25.506Z,99.90
2018-03-24T18:38:54.686Z,99.90
2018-03-24T18:41:23.563Z,99.90
2018-03-24T18:43:52.106Z,99.90
2018-03-24T18:46:21.588Z,99.90
2018-03-24T18:48:50.308Z,99.90
2018-03-24T18:51:18.692Z,99.90
2018-03-24T18:53:47.381Z,99.90
2018-03-24T18:56:16.059Z,99.90
2018-03-24T18:58:44.529Z,99.90
2018-03-24T19:01:13.052Z,99.90
2018-03-24T19:03:41.815Z,99.90
2018-03-24T19:06:11.115Z,99.90
2018-03-24T19:08:39.825Z,99.90
2018-03-24T19:11:09.405Z,99.90
2018-03-24T19:13:38.890Z,99.90
2018-03-24T19:16:07.323Z,99.90
2018-03-24T19:18:36.046Z,99.90
2018-03-24T19:21:05.734Z,99.90
2018-03-24T19:23:34.255Z,99.90
2018-03-24T19:26:03.024Z,99.90
2018-03-24T19:28:31.723Z,99.90
2018-03-24T19:31:00.131Z,99.90
2018-03-24T19:33:29.725Z,99.90
2018-03-24T19:35:58.349Z,99.90
2018-03-24T19:38:27.554Z,99.90
2018-03-24T19:40:56.239Z,99.90
2018-03-24T19:43:24.635Z,99.90
2018-03-24T19:45:54.251Z,99.90
2018-03-24T19:48:22.709Z,99.90
2018-03-24T19:50:51.452Z,99.90
2018-03-24T19:53:19.933Z,99.90
2018-03-24T19:55:48.653Z,99.90
2018-03-24T19:58:17.323Z,99.90
2018-03-24T20:00:46.193Z,99.90
2018-03-24T20:03:15.428Z,99.90
2018-03-24T20:05:45.055Z,99.90
2018-03-24T20:08:13.632Z,99.90
2018-03-24T20:10:42.266Z,99.90
2018-03-24T20:13:11.898Z,99.90
2018-03-24T20:15:40.836Z,99.90
2018-03-24T20:18:09.455Z,99.90
2018-03-24T20:20:38.496Z,99.90
2018-03-24T20:23:06.910Z,99.90
2018-03-24T20:25:35.290Z,99.90
2018-03-24T20:28:03.686Z,99.90
2018-03-24T20:30:32.081Z,99.90
2018-03-24T20:33:00.630Z,99.90
2018-03-24T20:35:29.290Z,99.90
2018-03-24T20:37:57.686Z,99.90
2018-03-24T20:40:26.070Z,99.90
2018-03-24T20:42:54.738Z,99.90
2018-03-24T20:45:23.314Z,99.90
2018-03-24T20:47:51.951Z,99.90
2018-03-24T20:50:20.610Z,99.90
2018-03-24T20:52:48.985Z,99.90
2018-03-24T20:55:17.655Z,99.90
2018-03-24T20:57:46.042Z,99.90
2018-03-24T21:00:14.845Z,99.90
2018-03-24T21:02:44.193Z,99.90
2018-03-24T21:05:13.643Z,99.90
2018-03-24T21:07:42.334Z,99.90
2018-03-24T21:10:10.921Z,99.90
2018-03-24T21:12:39.467Z,99.90
2018-03-24T21:15:07.186Z,99.90
2018-03-24T21:17:35.567Z,99.90
2018-03-24T21:20:03.910Z,99.90
2018-03-24T21:22:32.503Z,99.90
2018-03-24T21:25:01.662Z,99.90
2018-03-24T21:27:30.530Z,99.90
2018-03-24T21:29:59.219Z,99.90
2018-03-24T21:32:27.594Z,99.90
2018-03-24T21:34:55.982Z,99.90
2018-03-24T21:37:24.370Z,99.90
2018-03-24T21:39:53.008Z,99.90
2018-03-24T21:42:21.658Z,99.90
2018-03-24T21:44:50.059Z,99.90
2018-03-24T21:47:19.208Z,99.90
2018-03-24T21:49:47.646Z,99.90
2018-03-24T21:52:16.291Z,99.90
2018-03-24T21:54:45.008Z,99.90
2018-03-24T21:57:13.673Z,99.90
2018-03-24T21:59:42.126Z,99.90
2018-03-24T22:02:11.399Z,99.90
2018-03-24T22:04:39.960Z,99.90
2018-03-24T22:07:08.621Z,99.90
2018-03-24T22:09:37.297Z,99.90
2018-03-24T22:12:06.491Z,99.90
2018-03-24T22:14:34.875Z,99.90
2018-03-24T22:17:03.273Z,99.90
2018-03-24T22:19:32.419Z,99.90
2018-03-24T22:22:01.071Z,99.90
2018-03-24T22:24:29.733Z,99.90
2018-03-24T22:26:58.912Z,99.90
2018-03-24T22:29:27.457Z,99.90
2018-03-24T22:31:55.851Z,99.90
2018-03-24T22:34:25.255Z,99.90
2018-03-24T22:36:53.831Z,99.90
2018-03-24T22:39:22.487Z,99.90
2018-03-24T22:41:52.123Z,99.90
2018-03-24T22:44:20.779Z,99.90
2018-03-24T22:46:49.175Z,99.90
2018-03-24T22:49:17.687Z,99.90
2018-03-24T22:51:46.274Z,99.90
2018-03-24T22:54:14.666Z,99.90
2018-03-24T22:56:43.817Z,99.90
2018-03-24T22:59:12.202Z,99.90
2018-03-24T23:01:40.799Z,99.90
2018-03-24T23:04:09.202Z,99.90
2018-03-24T23:06:38.484Z,99.90
2018-03-24T23:09:07.202Z,99.90
2018-03-24T23:11:35.642Z,99.90
2018-03-24T23:14:05.219Z,99.90
2018-03-24T23:16:33.810Z,99.90
2018-03-24T23:19:02.282Z,99.90
2018-03-24T23:21:30.958Z,99.90
2018-03-24T23:23:59.357Z,99.90
2018-03-24T23:26:28.557Z,99.90
2018-03-24T23:28:57.232Z,99.90
2018-03-24T23:31:25.601Z,99.90
2018-03-24T23:33:55.033Z,99.90
2018-03-24T23:36:23.779Z,99.90
2018-03-24T23:38:53.205Z,99.90
2018-03-24T23:41:21.853Z,99.90
2018-03-24T23:43:50.551Z,99.90
2018-03-24T23:46:18.940Z,99.90
2018-03-24T23:48:47.333Z,99.90
2018-03-24T23:51:15.993Z,99.90
2018-03-24T23:53:44.360Z,99.90
2018-03-24T23:56:13.794Z,99.90
2018-03-24T23:58:42.559Z,99.90
